createdAt,value
2023-02-02T00:00:50.425Z,54.41
2023-02-02T00:01:54.738Z,54.37
2023-02-02T00:02:59.194Z,54.35
2023-02-02T00:04:03.699Z,54.44
2023-02-02T00:05:08.004Z,54.33
2023-02-02T00:06:12.266Z,54.21
2023-02-02T00:07:16.511Z,54.23
2023-02-02T00:08:20.763Z,54.04
2023-02-02T00:09:25.040Z,54.33
2023-02-02T00:10:29.288Z,54.4
2023-02-02T00:11:33.575Z,54.19
2023-02-02T00:12:37.819Z,54.11
2023-02-02T00:13:42.056Z,54
2023-02-02T00:14:46.391Z,54.35
2023-02-02T00:15:50.752Z,54.12
2023-02-02T00:16:55.087Z,54.11
2023-02-02T00:17:59.356Z,54.33
2023-02-02T00:19:03.607Z,54.12
2023-02-02T00:20:07.845Z,54.28
2023-02-02T00:21:12.089Z,54.16
2023-02-02T00:22:16.380Z,54.08
2023-02-02T00:23:20.641Z,54.29
2023-02-02T00:24:24.977Z,54.23
2023-02-02T00:25:29.246Z,54.25
2023-02-02T00:26:33.610Z,54.38
2023-02-02T00:27:37.874Z,54.2
2023-02-02T00:28:42.139Z,54.3
2023-02-02T00:29:46.381Z,54.22
2023-02-02T00:30:50.754Z,54.35
2023-02-02T00:31:55.472Z,54.41
2023-02-02T00:32:59.749Z,54.34
2023-02-02T00:34:04.053Z,54.32
2023-02-02T00:35:08.303Z,54.5
2023-02-02T00:36:12.554Z,54.49
2023-02-02T00:37:16.842Z,54.48
2023-02-02T00:38:21.113Z,54.47
2023-02-02T00:39:25.434Z,54.49
2023-02-02T00:40:29.714Z,54.63
2023-02-02T00:41:33.952Z,54.55
2023-02-02T00:42:38.249Z,54.5
2023-02-02T00:43:42.526Z,54.71
2023-02-02T00:44:46.796Z,54.67
2023-02-02T00:45:51.171Z,54.91
2023-02-02T00:46:55.461Z,54.72
2023-02-02T00:47:59.699Z,54.67
2023-02-02T00:49:03.948Z,54.88
2023-02-02T00:50:08.259Z,54.82
2023-02-02T00:51:12.510Z,54.8
2023-02-02T00:52:16.781Z,54.82
2023-02-02T00:53:21.079Z,54.82
2023-02-02T00:54:25.330Z,54.92
2023-02-02T00:55:29.636Z,54.77
2023-02-02T00:56:33.991Z,54.99
2023-02-02T00:57:38.283Z,55.04
2023-02-02T00:58:42.548Z,55.31
2023-02-02T00:59:46.803Z,55.02
2023-02-02T01:00:51.300Z,55.22
2023-02-02T01:01:55.658Z,55.25
2023-02-02T01:03:00.006Z,55.33
2023-02-02T01:04:04.318Z,55.3
2023-02-02T01:05:08.592Z,55.67
2023-02-02T01:06:12.880Z,55.57
2023-02-02T01:07:17.141Z,55.54
2023-02-02T01:08:21.371Z,55.88
2023-02-02T01:09:25.768Z,55.8
2023-02-02T01:10:30.045Z,55.93
2023-02-02T01:11:34.347Z,55.74
2023-02-02T01:12:38.648Z,55.79
2023-02-02T01:13:42.908Z,55.87
2023-02-02T01:14:47.135Z,56
2023-02-02T01:15:51.390Z,55.96
2023-02-02T01:16:55.672Z,56.52
2023-02-02T01:18:00.007Z,55.98
2023-02-02T01:19:04.304Z,56.01
2023-02-02T01:20:08.587Z,56.1
2023-02-02T01:21:12.925Z,56.32
2023-02-02T01:22:17.193Z,56.12
2023-02-02T01:23:21.466Z,56.07
2023-02-02T01:24:25.719Z,56.12
2023-02-02T01:25:30.013Z,56.05
2023-02-02T01:26:34.453Z,56.33
2023-02-02T01:27:38.893Z,56.01
2023-02-02T01:28:43.145Z,56.18
2023-02-02T01:29:47.379Z,56.19
2023-02-02T01:30:51.795Z,56.07
2023-02-02T01:31:56.366Z,56.17
2023-02-02T01:33:00.647Z,56.36
2023-02-02T01:34:04.930Z,56.1
2023-02-02T01:35:09.151Z,56.17
2023-02-02T01:36:13.434Z,56.3
2023-02-02T01:37:17.703Z,56.42
2023-02-02T01:38:21.954Z,56.54
2023-02-02T01:39:26.210Z,56.31
2023-02-02T01:40:30.473Z,56.49
2023-02-02T01:41:34.734Z,56.31
2023-02-02T01:42:39.008Z,56.57
2023-02-02T01:43:43.296Z,56.32
2023-02-02T01:44:47.567Z,56.59
2023-02-02T01:45:52.002Z,56.45
2023-02-02T01:46:56.296Z,56.47
2023-02-02T01:48:00.567Z,56.41
2023-02-02T01:49:04.861Z,56.62
2023-02-02T01:50:09.152Z,56.43
2023-02-02T01:51:13.460Z,56.49
2023-02-02T01:52:17.771Z,56.46
2023-02-02T01:53:22.027Z,56.66
2023-02-02T01:54:26.304Z,56.82
2023-02-02T01:55:30.593Z,56.39
2023-02-02T01:56:34.868Z,56.76
2023-02-02T01:57:39.162Z,56.54
2023-02-02T01:58:43.409Z,56.42
2023-02-02T01:59:47.664Z,56.18
2023-02-02T02:00:51.937Z,56.45
2023-02-02T02:01:56.194Z,56.46
2023-02-02T02:03:00.487Z,56.29
2023-02-02T02:04:04.757Z,56.43
2023-02-02T02:05:09.086Z,56.53
2023-02-02T02:06:13.493Z,56.6
2023-02-02T02:07:17.775Z,56.49
2023-02-02T02:08:22.086Z,56.5
2023-02-02T02:09:26.373Z,56.45
2023-02-02T02:10:30.629Z,56.54
2023-02-02T02:11:34.927Z,56.64
2023-02-02T02:12:39.208Z,56.52
2023-02-02T02:13:43.504Z,56.67
2023-02-02T02:14:47.785Z,56.46
2023-02-02T02:15:52.087Z,56.46
2023-02-02T02:16:56.659Z,56.45
2023-02-02T02:18:00.942Z,56.46
2023-02-02T02:19:05.201Z,56.59
2023-02-02T02:20:09.495Z,56.54
2023-02-02T02:21:13.909Z,56.22
2023-02-02T02:22:18.172Z,56.4
2023-02-02T02:23:22.420Z,56.41
2023-02-02T02:24:26.671Z,56.23
2023-02-02T02:25:30.973Z,56.47
2023-02-02T02:26:35.519Z,56.4
2023-02-02T02:27:39.816Z,56.53
2023-02-02T02:28:44.060Z,56.17
2023-02-02T02:29:48.334Z,56.18
2023-02-02T02:30:52.914Z,56.24
2023-02-02T02:31:57.229Z,56.39
2023-02-02T02:33:01.513Z,56.42
2023-02-02T02:34:05.758Z,56.31
2023-02-02T02:35:09.996Z,56.26
2023-02-02T02:36:14.279Z,56.37
2023-02-02T02:37:18.571Z,56.27
2023-02-02T02:38:22.828Z,56.24
2023-02-02T02:39:27.081Z,56.4
2023-02-02T02:40:31.342Z,56.09
2023-02-02T02:41:35.616Z,56.58
2023-02-02T02:42:39.873Z,56.46
2023-02-02T02:43:44.129Z,56.14
2023-02-02T02:44:48.394Z,56.22
2023-02-02T02:45:52.882Z,56.12
2023-02-02T02:46:57.141Z,56.49
2023-02-02T02:48:01.464Z,56.28
2023-02-02T02:49:05.722Z,56.33
2023-02-02T02:50:09.989Z,56.03
2023-02-02T02:51:14.251Z,56.28
2023-02-02T02:52:18.602Z,56.4
2023-02-02T02:53:22.869Z,56.4
2023-02-02T02:54:27.160Z,56.48
2023-02-02T02:55:31.479Z,56.22
2023-02-02T02:56:35.722Z,56.01
2023-02-02T02:57:39.968Z,56.15
2023-02-02T02:58:44.248Z,56.15
2023-02-02T02:59:48.518Z,56.37
2023-02-02T03:00:52.821Z,56.18
2023-02-02T03:01:57.071Z,56.22
2023-02-02T03:03:01.329Z,56.01
2023-02-02T03:04:05.596Z,56.02
2023-02-02T03:05:09.851Z,56.24
2023-02-02T03:06:14.134Z,56
2023-02-02T03:07:18.379Z,56.34
2023-02-02T03:08:22.641Z,56.28
2023-02-02T03:09:26.923Z,56.21
2023-02-02T03:10:31.187Z,55.89
2023-02-02T03:11:35.457Z,55.93
2023-02-02T03:12:39.704Z,56
2023-02-02T03:13:43.929Z,55.87
2023-02-02T03:14:48.192Z,56.05
2023-02-02T03:15:52.659Z,56.1
2023-02-02T03:16:57.089Z,56.08
2023-02-02T03:18:01.322Z,56.2
2023-02-02T03:19:05.622Z,55.71
2023-02-02T03:20:09.875Z,56.14
2023-02-02T03:21:14.172Z,55.87
2023-02-02T03:22:18.433Z,56.21
2023-02-02T03:23:22.695Z,56.37
2023-02-02T03:24:26.965Z,56.43
2023-02-02T03:25:31.238Z,56.47
2023-02-02T03:26:35.711Z,56.28
2023-02-02T03:27:40.004Z,56.17
2023-02-02T03:28:44.276Z,56.17
2023-02-02T03:29:48.546Z,56.1
2023-02-02T03:30:53.231Z,56.14
2023-02-02T03:31:57.570Z,56.29
2023-02-02T03:33:01.817Z,56.17
2023-02-02T03:34:06.080Z,56.12
2023-02-02T03:35:10.325Z,56
2023-02-02T03:36:14.572Z,56.04
2023-02-02T03:37:18.830Z,56.25
2023-02-02T03:38:23.097Z,56.33
2023-02-02T03:39:27.365Z,56.72
2023-02-02T03:40:31.657Z,56.71
2023-02-02T03:41:35.995Z,56.11
2023-02-02T03:42:40.264Z,56.73
2023-02-02T03:43:44.544Z,56.75
2023-02-02T03:44:48.794Z,56.4
2023-02-02T03:45:53.096Z,56.94
2023-02-02T03:46:57.364Z,56.34
2023-02-02T03:48:01.638Z,56.52
2023-02-02T03:49:05.883Z,56.56
2023-02-02T03:50:11.845Z,56.74
2023-02-02T03:51:16.118Z,56.74
2023-02-02T03:52:20.478Z,56.69
2023-02-02T03:53:24.731Z,56.69
2023-02-02T03:54:29.015Z,56.96
2023-02-02T03:55:33.267Z,57.06
2023-02-02T03:56:37.570Z,56.83
2023-02-02T03:57:42.014Z,57.2
2023-02-02T03:58:46.367Z,56.94
2023-02-02T03:59:50.690Z,56.76
2023-02-02T04:00:54.976Z,56.66
2023-02-02T04:01:59.571Z,56.73
2023-02-02T04:03:04.130Z,56.67
2023-02-02T04:04:08.490Z,56.79
2023-02-02T04:05:12.756Z,56.5
2023-02-02T04:06:17.053Z,56.54
2023-02-02T04:07:21.376Z,56.73
2023-02-02T04:08:25.648Z,56.54
2023-02-02T04:09:29.933Z,56.57
2023-02-02T04:10:34.222Z,56.87
2023-02-02T04:11:40.417Z,56.5
2023-02-02T04:12:44.726Z,56.51
2023-02-02T04:13:48.988Z,56.62
2023-02-02T04:14:53.261Z,56.42
2023-02-02T04:15:57.631Z,56.52
2023-02-02T04:17:01.951Z,56.63
2023-02-02T04:18:06.253Z,56.27
2023-02-02T04:19:10.514Z,56.44
2023-02-02T04:20:14.769Z,56.56
2023-02-02T04:21:19.059Z,57.23
2023-02-02T04:22:23.330Z,57.3
2023-02-02T04:23:27.626Z,57.08
2023-02-02T04:24:31.899Z,57.21
2023-02-02T04:25:36.169Z,56.3
2023-02-02T04:26:40.609Z,56.74
2023-02-02T04:27:45.021Z,56.66
2023-02-02T04:28:49.417Z,56.6
2023-02-02T04:29:53.671Z,56.9
2023-02-02T04:30:58.108Z,56.42
2023-02-02T04:32:02.727Z,56.75
2023-02-02T04:33:06.979Z,56.7
2023-02-02T04:34:11.267Z,56.8
2023-02-02T04:35:15.558Z,57.11
2023-02-02T04:36:19.816Z,57.01
2023-02-02T04:37:24.094Z,57.24
2023-02-02T04:38:28.377Z,57.37
2023-02-02T04:39:32.648Z,56.99
2023-02-02T04:40:36.906Z,56.77
2023-02-02T04:41:41.204Z,57.06
2023-02-02T04:42:45.546Z,57.02
2023-02-02T04:43:49.814Z,56.75
2023-02-02T04:44:54.111Z,56.6
2023-02-02T04:45:58.756Z,56.82
2023-02-02T04:47:03.065Z,56.98
2023-02-02T04:48:07.392Z,57.12
2023-02-02T04:49:11.674Z,57.49
2023-02-02T04:50:15.932Z,57.44
2023-02-02T04:51:20.250Z,57.48
2023-02-02T04:52:24.563Z,57.45
2023-02-02T04:53:28.854Z,57.23
2023-02-02T04:54:33.159Z,57.43
2023-02-02T04:55:37.455Z,57.33
2023-02-02T04:56:41.713Z,57.12
2023-02-02T04:57:45.988Z,57.3
2023-02-02T04:58:50.270Z,56.62
2023-02-02T04:59:54.514Z,56.13
2023-02-02T05:00:59.059Z,56.78
2023-02-02T05:02:03.334Z,56.58
2023-02-02T05:03:07.626Z,56.07
2023-02-02T05:04:12.023Z,55.09
2023-02-02T05:05:16.324Z,54.94
2023-02-02T05:06:20.615Z,54.65
2023-02-02T05:07:24.911Z,54.23
2023-02-02T05:08:29.154Z,53.94
2023-02-02T05:09:33.440Z,53.71
2023-02-02T05:10:37.747Z,53.4
2023-02-02T05:11:42.023Z,53.51
2023-02-02T05:12:46.303Z,53.31
2023-02-02T05:13:50.572Z,53.29
2023-02-02T05:14:54.837Z,53.08
2023-02-02T05:15:59.130Z,52.77
2023-02-02T05:17:03.536Z,52.6
2023-02-02T05:18:07.781Z,52.34
2023-02-02T05:19:12.133Z,52.19
2023-02-02T05:20:16.409Z,52.15
2023-02-02T05:21:20.757Z,51.98
2023-02-02T05:22:25.053Z,51.9
2023-02-02T05:23:29.363Z,51.88
2023-02-02T05:24:33.628Z,51.7
2023-02-02T05:25:37.899Z,51.64
2023-02-02T05:26:42.277Z,51.49
2023-02-02T05:27:46.536Z,51.39
2023-02-02T05:28:50.906Z,51.38
2023-02-02T05:29:55.181Z,51.27
2023-02-02T05:30:59.685Z,51.32
2023-02-02T05:32:04.290Z,51.3
2023-02-02T05:33:08.573Z,51.16
2023-02-02T05:34:13.291Z,51.11
2023-02-02T05:35:17.712Z,51.01
2023-02-02T05:36:21.999Z,50.9
2023-02-02T05:37:26.254Z,50.91
2023-02-02T05:38:30.562Z,50.87
2023-02-02T05:39:34.876Z,50.81
2023-02-02T05:40:39.139Z,50.81
2023-02-02T05:41:43.451Z,50.67
2023-02-02T05:42:47.740Z,50.63
2023-02-02T05:43:52.016Z,50.54
2023-02-02T05:44:56.293Z,50.53
2023-02-02T05:46:00.809Z,50.46
2023-02-02T05:47:05.139Z,50.55
2023-02-02T05:48:09.385Z,50.5
2023-02-02T05:49:13.642Z,50.45
2023-02-02T05:50:17.923Z,50.34
2023-02-02T05:51:22.199Z,50.33
2023-02-02T05:52:26.512Z,50.36
2023-02-02T05:53:30.780Z,50.24
2023-02-02T05:54:35.067Z,50.19
2023-02-02T05:55:39.332Z,50.16
2023-02-02T05:56:43.597Z,50.2
2023-02-02T05:57:47.984Z,50.09
2023-02-02T05:58:52.254Z,50.09
2023-02-02T05:59:56.518Z,50.06
2023-02-02T06:01:00.791Z,50.03
2023-02-02T06:02:05.055Z,50.03
2023-02-02T06:03:09.802Z,49.96
2023-02-02T06:04:14.317Z,49.93
2023-02-02T06:05:18.643Z,49.9
2023-02-02T06:06:22.924Z,49.99
2023-02-02T06:07:27.236Z,49.87
2023-02-02T06:08:31.498Z,49.95
2023-02-02T06:09:35.838Z,49.97
2023-02-02T06:10:40.094Z,50.04
2023-02-02T06:11:44.358Z,49.94
2023-02-02T06:12:48.624Z,49.98
2023-02-02T06:13:52.921Z,50.05
2023-02-02T06:14:57.197Z,49.93
2023-02-02T06:16:01.718Z,50.02
2023-02-02T06:17:06.032Z,50.01
2023-02-02T06:18:10.489Z,50.07
2023-02-02T06:19:14.889Z,50.13
2023-02-02T06:20:22.620Z,50.13
2023-02-02T06:21:27.023Z,50.19
2023-02-02T06:22:31.307Z,50.27
2023-02-02T06:23:35.739Z,50.34
2023-02-02T06:24:40.017Z,50.34
2023-02-02T06:25:44.301Z,50.42
2023-02-02T06:26:48.837Z,50.46
2023-02-02T06:27:53.151Z,50.53
2023-02-02T06:28:57.423Z,50.48
2023-02-02T06:30:01.703Z,50.57
2023-02-02T06:31:06.369Z,50.74
2023-02-02T06:32:10.866Z,50.76
2023-02-02T06:33:15.131Z,50.62
2023-02-02T06:34:19.549Z,50.62
2023-02-02T06:35:24.678Z,50.5
2023-02-02T06:36:29.042Z,50.71
2023-02-02T06:37:33.474Z,50.66
2023-02-02T06:38:37.765Z,50.47
2023-02-02T06:39:42.048Z,50.36
2023-02-02T06:40:46.286Z,50.27
2023-02-02T06:41:50.575Z,50.09
2023-02-02T06:42:54.827Z,50.14
2023-02-02T06:43:59.101Z,49.92
2023-02-02T06:45:03.467Z,49.86
2023-02-02T06:46:08.002Z,49.76
2023-02-02T06:47:12.255Z,49.58
2023-02-02T06:48:16.556Z,49.48
2023-02-02T06:49:20.812Z,49.49
2023-02-02T06:50:25.115Z,49.42
2023-02-02T06:51:29.387Z,49.48
2023-02-02T06:52:33.640Z,49.26
2023-02-02T06:53:37.974Z,49.38
2023-02-02T06:54:42.250Z,49.18
2023-02-02T06:55:46.541Z,49.2
2023-02-02T06:56:50.819Z,49.22
2023-02-02T06:57:55.066Z,49.32
2023-02-02T06:58:59.324Z,49.23
2023-02-02T07:00:03.601Z,49.25
2023-02-02T07:01:07.969Z,49.39
2023-02-02T07:02:12.249Z,49.33
2023-02-02T07:03:16.704Z,49.36
2023-02-02T07:04:21.032Z,49.42
2023-02-02T07:05:28.592Z,49.41
2023-02-02T07:06:34.697Z,49.48
2023-02-02T07:07:39.084Z,49.43
2023-02-02T07:08:43.457Z,49.64
2023-02-02T07:09:58.640Z,49.74
2023-02-02T07:11:18.473Z,49.67
2023-02-02T07:12:23.782Z,49.7
2023-02-02T07:13:28.034Z,49.7
2023-02-02T07:14:32.346Z,49.74
2023-02-02T07:15:36.890Z,49.83
2023-02-02T07:16:41.269Z,49.93
2023-02-02T07:17:45.574Z,49.95
2023-02-02T07:18:49.868Z,49.79
2023-02-02T07:19:54.193Z,49.83
2023-02-02T07:20:58.464Z,49.88
2023-02-02T07:22:02.889Z,50.02
2023-02-02T07:23:07.476Z,50.14
2023-02-02T07:24:11.786Z,50.24
2023-02-02T07:25:16.112Z,50.24
2023-02-02T07:26:20.793Z,50.46
2023-02-02T07:27:25.114Z,50.48
2023-02-02T07:28:29.449Z,50.37
2023-02-02T07:29:33.750Z,50.52
2023-02-02T07:30:38.151Z,50.43
2023-02-02T07:31:42.805Z,50.47
2023-02-02T07:32:47.193Z,50.32
2023-02-02T07:33:51.531Z,50.02
2023-02-02T07:34:55.832Z,49.98
2023-02-02T07:36:00.165Z,49.7
2023-02-02T07:37:04.503Z,49.85
2023-02-02T07:38:08.788Z,49.62
2023-02-02T07:39:13.103Z,49.39
2023-02-02T07:40:17.395Z,49.22
2023-02-02T07:41:21.722Z,49.22
2023-02-02T07:42:25.997Z,49
2023-02-02T07:43:30.305Z,48.83
2023-02-02T07:44:34.628Z,48.75
2023-02-02T07:45:40.326Z,48.7
2023-02-02T07:46:44.888Z,48.57
2023-02-02T07:47:49.469Z,48.48
2023-02-02T07:48:53.779Z,48.43
2023-02-02T07:49:58.228Z,48.46
2023-02-02T07:51:02.556Z,48.56
2023-02-02T07:52:06.873Z,48.55
2023-02-02T07:53:11.180Z,48.55
2023-02-02T07:54:15.512Z,48.67
2023-02-02T07:55:19.855Z,48.67
2023-02-02T07:56:24.248Z,48.66
2023-02-02T07:57:28.539Z,48.61
2023-02-02T07:58:32.824Z,48.7
2023-02-02T07:59:37.130Z,48.72
2023-02-02T08:00:41.529Z,48.76
2023-02-02T08:01:46.016Z,48.84
2023-02-02T08:02:50.574Z,48.88
2023-02-02T08:03:54.881Z,48.9
2023-02-02T08:04:59.184Z,48.92
2023-02-02T08:06:03.551Z,49.01
2023-02-02T08:07:08.010Z,49.06
2023-02-02T08:08:12.464Z,49.05
2023-02-02T08:09:16.838Z,49.13
2023-02-02T08:10:21.185Z,49.25
2023-02-02T08:11:25.472Z,49.25
2023-02-02T08:12:29.782Z,49.21
2023-02-02T08:13:34.117Z,49.49
2023-02-02T08:14:38.629Z,49.33
2023-02-02T08:15:42.953Z,49.44
2023-02-02T08:16:47.318Z,49.63
2023-02-02T08:17:51.606Z,49.63
2023-02-02T08:18:55.933Z,49.56
2023-02-02T08:20:00.290Z,49.61
2023-02-02T08:21:04.700Z,49.93
2023-02-02T08:22:09.009Z,50.07
2023-02-02T08:23:13.429Z,50.06
2023-02-02T08:24:17.776Z,50.14
2023-02-02T08:25:22.066Z,50.19
2023-02-02T08:26:26.525Z,50.25
2023-02-02T08:27:31.031Z,50.11
2023-02-02T08:28:35.350Z,50.11
2023-02-02T08:29:39.715Z,50.07
2023-02-02T08:30:44.097Z,50.26
2023-02-02T08:31:48.848Z,50.25
2023-02-02T08:32:53.245Z,50.09
2023-02-02T08:33:57.548Z,50.1
2023-02-02T08:35:01.862Z,50.22
2023-02-02T08:36:06.328Z,50.04
2023-02-02T08:37:10.660Z,50.22
2023-02-02T08:38:14.935Z,50.01
2023-02-02T08:39:19.468Z,50.01
2023-02-02T08:40:24.104Z,49.71
2023-02-02T08:41:28.443Z,49.58
2023-02-02T08:42:32.850Z,49.24
2023-02-02T08:43:37.287Z,49.04
2023-02-02T08:46:06.583Z,48.59
2023-02-02T08:47:11.404Z,48.48
2023-02-02T08:48:16.032Z,48.47
2023-02-02T08:49:20.404Z,48.37
2023-02-02T08:50:24.737Z,48.24
2023-02-02T08:51:29.031Z,48.12
2023-02-02T08:52:33.333Z,48.02
2023-02-02T08:53:37.684Z,48.03
2023-02-02T08:54:41.996Z,47.98
2023-02-02T08:55:46.311Z,48.1
2023-02-02T08:56:50.648Z,48.08
2023-02-02T08:57:54.957Z,48.2
2023-02-02T08:58:59.279Z,48.36
2023-02-02T09:00:03.562Z,48.24
2023-02-02T09:01:08.327Z,48.35
2023-02-02T09:02:12.750Z,48.31
2023-02-02T09:03:17.079Z,48.39
2023-02-02T09:04:21.360Z,48.48
2023-02-02T09:05:27.005Z,48.44
2023-02-02T09:06:31.450Z,48.5
2023-02-02T09:07:35.748Z,48.61
2023-02-02T09:08:40.231Z,48.63
2023-02-02T09:09:44.641Z,48.66
2023-02-02T09:10:48.940Z,48.64
2023-02-02T09:11:53.291Z,48.67
2023-02-02T09:12:57.592Z,48.71
2023-02-02T09:14:01.909Z,48.74
2023-02-02T09:15:06.436Z,48.86
2023-02-02T09:16:10.972Z,48.88
2023-02-02T09:17:15.378Z,48.96
2023-02-02T09:18:19.815Z,48.97
2023-02-02T09:19:24.102Z,48.98
2023-02-02T09:20:28.415Z,48.95
2023-02-02T09:21:32.736Z,49.06
2023-02-02T09:22:37.062Z,49.15
2023-02-02T09:23:41.370Z,49.03
2023-02-02T09:24:45.666Z,49.14
2023-02-02T09:25:49.946Z,49.27
2023-02-02T09:26:54.474Z,49.47
2023-02-02T09:27:58.881Z,49.4
2023-02-02T09:29:03.183Z,49.42
2023-02-02T09:30:07.471Z,49.46
2023-02-02T09:31:11.991Z,49.48
2023-02-02T09:32:16.416Z,49.54
2023-02-02T09:33:20.746Z,49.37
2023-02-02T09:34:25.073Z,48.94
2023-02-02T09:35:29.783Z,48.73
2023-02-02T09:36:34.125Z,48.7
2023-02-02T09:37:38.416Z,48.51
2023-02-02T09:38:42.727Z,48.54
2023-02-02T09:39:47.065Z,48.3
2023-02-02T09:40:51.360Z,48.11
2023-02-02T09:41:55.717Z,48
2023-02-02T09:43:00.036Z,47.96
2023-02-02T09:44:04.417Z,47.87
2023-02-02T09:45:08.803Z,47.8
2023-02-02T09:46:13.351Z,47.79
2023-02-02T09:47:17.709Z,47.8
2023-02-02T09:48:22.077Z,47.74
2023-02-02T09:49:26.381Z,47.69
2023-02-02T09:50:30.751Z,47.66
2023-02-02T09:51:35.028Z,47.56
2023-02-02T09:52:39.311Z,47.47
2023-02-02T09:53:57.296Z,47.59
2023-02-02T09:55:01.611Z,47.66
2023-02-02T09:56:05.908Z,47.77
2023-02-02T09:57:10.232Z,47.86
2023-02-02T09:58:14.524Z,47.67
2023-02-02T09:59:25.465Z,47.83
2023-02-02T10:00:29.779Z,47.75
2023-02-02T10:01:34.379Z,47.83
2023-02-02T10:02:38.735Z,47.86
2023-02-02T10:03:43.193Z,48.01
2023-02-02T10:04:47.619Z,47.91
2023-02-02T10:05:51.952Z,48.01
2023-02-02T10:06:56.283Z,48.06
2023-02-02T10:08:00.896Z,48.26
2023-02-02T10:09:05.240Z,48.2
2023-02-02T10:10:09.602Z,48.24
2023-02-02T10:11:13.949Z,48.28
2023-02-02T10:12:18.249Z,48.32
2023-02-02T10:13:22.692Z,48.45
2023-02-02T10:14:27.188Z,48.45
2023-02-02T10:15:31.803Z,48.46
2023-02-02T10:16:36.216Z,48.44
2023-02-02T10:17:40.532Z,48.65
2023-02-02T10:18:44.834Z,48.57
2023-02-02T10:19:49.385Z,48.52
2023-02-02T10:20:53.692Z,48.71
2023-02-02T10:21:58.031Z,48.85
2023-02-02T10:23:02.387Z,48.84
2023-02-02T10:24:06.669Z,49.1
2023-02-02T10:25:10.985Z,49.05
2023-02-02T10:26:15.284Z,49.12
2023-02-02T10:27:19.575Z,49.05
2023-02-02T10:28:23.883Z,49.06
2023-02-02T10:29:37.366Z,49.25
2023-02-02T10:30:48.055Z,49.24
2023-02-02T10:31:52.997Z,49.09
2023-02-02T10:32:59.064Z,49.12
2023-02-02T10:34:04.701Z,49.17
2023-02-02T10:35:18.089Z,48.44
2023-02-02T10:36:22.615Z,46.36
2023-02-02T10:37:27.006Z,46.19
2023-02-02T10:38:31.320Z,46.05
2023-02-02T10:39:35.684Z,45.6
2023-02-02T10:40:40.188Z,45.47
2023-02-02T10:41:44.514Z,44.95
2023-02-02T10:42:49.998Z,44.53
2023-02-02T10:43:54.306Z,43.98
2023-02-02T10:44:58.922Z,43.65
2023-02-02T10:46:03.388Z,43.72
2023-02-02T10:47:07.821Z,43.2
2023-02-02T10:48:12.111Z,42.92
2023-02-02T10:49:16.454Z,42.63
2023-02-02T10:50:20.969Z,42.48
2023-02-02T10:51:25.417Z,41.85
2023-02-02T10:52:29.708Z,42.43
2023-02-02T10:53:34.095Z,43.08
2023-02-02T10:55:01.579Z,43.32
2023-02-02T10:56:06.514Z,43.57
2023-02-02T10:57:10.806Z,43.7
2023-02-02T10:58:15.120Z,43.82
2023-02-02T10:59:19.406Z,43.65
2023-02-02T11:00:26.481Z,43.79
2023-02-02T11:01:31.113Z,44.38
2023-02-02T11:02:35.610Z,44.63
2023-02-02T11:03:39.917Z,44.42
2023-02-02T11:04:44.231Z,44.74
2023-02-02T11:05:48.532Z,44.17
2023-02-02T11:06:52.904Z,44.68
2023-02-02T11:07:57.194Z,44.7
2023-02-02T11:09:01.594Z,44.91
2023-02-02T11:10:05.940Z,44.85
2023-02-02T11:11:10.269Z,44.91
2023-02-02T11:12:14.700Z,44.61
2023-02-02T11:13:19.210Z,44.83
2023-02-02T11:14:23.495Z,44.82
2023-02-02T11:15:27.836Z,44.94
2023-02-02T11:16:45.653Z,45.19
2023-02-02T11:17:50.064Z,45
2023-02-02T11:18:54.368Z,45.35
2023-02-02T11:19:58.671Z,45.55
2023-02-02T11:21:02.968Z,45.56
2023-02-02T11:22:07.291Z,45.36
2023-02-02T11:23:11.578Z,45.48
2023-02-02T11:24:15.914Z,45.31
2023-02-02T11:25:20.200Z,45.42
2023-02-02T11:26:24.636Z,45.46
2023-02-02T11:27:28.995Z,45.43
2023-02-02T11:28:33.339Z,45.38
2023-02-02T11:29:37.634Z,45.3
2023-02-02T11:30:42.040Z,45.26
2023-02-02T11:31:46.549Z,45.28
2023-02-02T11:32:50.942Z,45.2
2023-02-02T11:33:55.237Z,45.21
2023-02-02T11:34:59.574Z,45.38
2023-02-02T11:36:03.889Z,45.34
2023-02-02T11:37:08.161Z,45.44
2023-02-02T11:38:12.472Z,45.49
2023-02-02T11:39:16.845Z,45.68
2023-02-02T11:40:21.152Z,45.66
2023-02-02T11:41:25.490Z,45.74
2023-02-02T11:42:29.792Z,45.97
2023-02-02T11:43:34.087Z,46.01
2023-02-02T11:44:38.390Z,46.07
2023-02-02T11:45:42.738Z,46.15
2023-02-02T11:46:47.258Z,46.22
2023-02-02T11:47:51.560Z,46.4
2023-02-02T11:48:55.893Z,46.49
2023-02-02T11:50:02.728Z,46.45
2023-02-02T11:51:08.766Z,46.63
2023-02-02T11:52:15.396Z,46.69
2023-02-02T11:53:19.774Z,46.89
2023-02-02T11:54:24.066Z,46.97
2023-02-02T11:55:28.332Z,47.02
2023-02-02T11:56:32.619Z,46.93
2023-02-02T11:57:36.938Z,47.1
2023-02-02T11:58:41.236Z,47.34
2023-02-02T11:59:45.528Z,47.25
2023-02-02T12:00:49.934Z,47.38
2023-02-02T12:01:54.398Z,47.5
2023-02-02T12:02:58.716Z,47.54
2023-02-02T12:04:03.217Z,47.56
2023-02-02T12:05:07.526Z,47.57
2023-02-02T12:06:11.824Z,47.77
2023-02-02T12:07:16.360Z,47.78
2023-02-02T12:08:20.648Z,47.86
2023-02-02T12:09:25.004Z,47.86
2023-02-02T12:10:34.464Z,47.97
2023-02-02T12:11:39.413Z,48.04
2023-02-02T12:12:44.459Z,48.19
2023-02-02T12:13:49.043Z,48.4
2023-02-02T12:14:53.339Z,48.7
2023-02-02T12:15:57.923Z,48.87
2023-02-02T12:17:02.248Z,48.79
2023-02-02T12:18:06.644Z,48.83
2023-02-02T12:19:10.943Z,48.89
2023-02-02T12:20:15.263Z,49.12
2023-02-02T12:21:19.587Z,49.07
2023-02-02T12:22:24.080Z,49.04
2023-02-02T12:23:28.511Z,49.14
2023-02-02T12:24:33.050Z,49.19
2023-02-02T12:25:37.511Z,49.23
2023-02-02T12:26:41.958Z,49.3
2023-02-02T12:27:46.264Z,49.35
2023-02-02T12:28:50.611Z,49.09
2023-02-02T12:29:55.318Z,49.32
2023-02-02T12:30:59.907Z,49.25
2023-02-02T12:32:04.498Z,49.13
2023-02-02T12:33:08.873Z,48.93
2023-02-02T12:34:14.030Z,49.02
2023-02-02T12:35:18.379Z,48.68
2023-02-02T12:36:22.737Z,48.66
2023-02-02T12:37:27.159Z,48.7
2023-02-02T12:38:31.481Z,48.52
2023-02-02T12:39:36.101Z,48.49
2023-02-02T12:40:40.480Z,48.38
2023-02-02T12:41:44.781Z,48.39
2023-02-02T12:42:49.519Z,48.42
2023-02-02T12:43:53.972Z,48.36
2023-02-02T12:44:58.253Z,48.24
2023-02-02T12:46:02.714Z,48.21
2023-02-02T12:47:07.019Z,48.19
2023-02-02T12:48:11.343Z,48.2
2023-02-02T12:49:15.614Z,48.15
2023-02-02T12:50:19.887Z,48.15
2023-02-02T12:51:24.197Z,48.16
2023-02-02T12:52:28.493Z,48.12
2023-02-02T12:53:32.824Z,48.21
2023-02-02T12:54:57.646Z,48.22
2023-02-02T12:56:02.439Z,48.27
2023-02-02T12:57:07.596Z,48.16
2023-02-02T12:58:11.920Z,48.27
2023-02-02T12:59:16.237Z,48.23
2023-02-02T13:00:20.518Z,48.15
2023-02-02T13:01:25.235Z,48.19
2023-02-02T13:02:29.954Z,48.33
2023-02-02T13:03:34.261Z,48.28
2023-02-02T13:05:04.424Z,48.49
2023-02-02T13:06:08.816Z,48.52
2023-02-02T13:07:13.100Z,48.57
2023-02-02T13:08:17.477Z,48.66
2023-02-02T13:09:22.054Z,48.77
2023-02-02T13:10:27.751Z,48.91
2023-02-02T13:11:32.257Z,48.79
2023-02-02T13:12:36.581Z,49.18
2023-02-02T13:13:40.922Z,49.1
2023-02-02T13:14:45.242Z,49.19
2023-02-02T13:15:49.573Z,49.03
2023-02-02T13:16:54.018Z,49.25
2023-02-02T13:17:58.329Z,48.93
2023-02-02T13:19:02.636Z,49.36
2023-02-02T13:20:06.924Z,49.23
2023-02-02T13:21:11.214Z,49.17
2023-02-02T13:22:15.532Z,49.31
2023-02-02T13:23:20.117Z,49.32
2023-02-02T13:24:24.455Z,49.34
2023-02-02T13:25:29.657Z,49.05
2023-02-02T13:26:34.397Z,49.04
2023-02-02T13:27:38.801Z,49.09
2023-02-02T13:28:43.121Z,49.11
2023-02-02T13:29:50.244Z,49.49
2023-02-02T13:30:54.981Z,49.5
2023-02-02T13:31:59.514Z,49.44
2023-02-02T13:33:03.821Z,49.47
2023-02-02T13:34:08.129Z,49.61
2023-02-02T13:35:12.519Z,49.46
2023-02-02T13:36:16.917Z,49.43
2023-02-02T13:37:21.227Z,49.39
2023-02-02T13:38:25.519Z,49.49
2023-02-02T13:39:29.821Z,49.76
2023-02-02T13:40:34.630Z,49.64
2023-02-02T13:41:39.296Z,49.69
2023-02-02T13:42:43.616Z,49.33
2023-02-02T13:43:47.909Z,49.65
2023-02-02T13:44:52.246Z,49.79
2023-02-02T13:45:56.698Z,49.7
2023-02-02T13:47:01.017Z,49.64
2023-02-02T13:48:05.305Z,49.56
2023-02-02T13:49:09.622Z,49.21
2023-02-02T13:50:13.945Z,49.7
2023-02-02T13:51:18.300Z,50.03
2023-02-02T13:52:22.632Z,49.92
2023-02-02T13:53:27.015Z,49.73
2023-02-02T13:54:31.309Z,49.99
2023-02-02T13:55:35.690Z,49.32
2023-02-02T13:56:40.041Z,49.25
2023-02-02T13:57:44.340Z,49.33